sensor_id;sensor_type;location;lat;lon;timestamp;P1;durP1;ratioP1;P2;durP2;ratioP2
12869;SDS011;6503;48.572;13.460;2023-04-06T00:01:42;7.63;;;4.32;;
12869;SDS011;6503;48.572;13.460;2023-04-06T00:04:17;7.97;;;4.20;;
12869;SDS011;6503;48.572;13.460;2023-04-06T00:06:46;6.45;;;4.50;;
12869;SDS011;6503;48.572;13.460;2023-04-06T00:09:27;9.02;;;4.60;;
12869;SDS011;6503;48.572;13.460;2023-04-06T00:12:09;5.45;;;4.05;;
12869;SDS011;6503;48.572;13.460;2023-04-06T00:14:50;6.93;;;4.50;;
12869;SDS011;6503;48.572;13.460;2023-04-06T00:17:18;7.30;;;4.80;;
12869;SDS011;6503;48.572;13.460;2023-04-06T00:19:50;6.78;;;4.47;;
12869;SDS011;6503;48.572;13.460;2023-04-06T00:22:20;6.85;;;4.57;;
12869;SDS011;6503;48.572;13.460;2023-04-06T00:24:49;6.78;;;4.13;;
12869;SDS011;6503;48.572;13.460;2023-04-06T00:27:20;9.10;;;4.28;;
12869;SDS011;6503;48.572;13.460;2023-04-06T00:29:58;6.93;;;3.80;;
12869;SDS011;6503;48.572;13.460;2023-04-06T00:32:45;5.97;;;3.83;;
12869;SDS011;6503;48.572;13.460;2023-04-06T00:35:27;8.38;;;4.93;;
12869;SDS011;6503;48.572;13.460;2023-04-06T00:38:09;4.53;;;3.65;;
12869;SDS011;6503;48.572;13.460;2023-04-06T00:43:15;5.45;;;3.58;;
12869;SDS011;6503;48.572;13.460;2023-04-06T00:45:46;5.88;;;3.28;;
12869;SDS011;6503;48.572;13.460;2023-04-06T00:48:15;6.93;;;3.65;;
12869;SDS011;6503;48.572;13.460;2023-04-06T00:51:01;7.95;;;3.83;;
12869;SDS011;6503;48.572;13.460;2023-04-06T00:53:29;6.40;;;3.85;;
12869;SDS011;6503;48.572;13.460;2023-04-06T00:55:56;7.45;;;3.63;;
12869;SDS011;6503;48.572;13.460;2023-04-06T00:58:26;5.22;;;4.00;;
12869;SDS011;6503;48.572;13.460;2023-04-06T01:00:54;6.13;;;3.88;;
12869;SDS011;6503;48.572;13.460;2023-04-06T01:03:27;5.60;;;3.67;;
12869;SDS011;6503;48.572;13.460;2023-04-06T01:06:02;10.82;;;4.68;;
12869;SDS011;6503;48.572;13.460;2023-04-06T01:08:38;8.65;;;4.30;;
12869;SDS011;6503;48.572;13.460;2023-04-06T01:11:09;7.60;;;4.82;;
12869;SDS011;6503;48.572;13.460;2023-04-06T01:13:43;6.85;;;4.22;;
12869;SDS011;6503;48.572;13.460;2023-04-06T01:18:46;5.07;;;3.50;;
12869;SDS011;6503;48.572;13.460;2023-04-06T01:21:19;6.55;;;3.80;;
12869;SDS011;6503;48.572;13.460;2023-04-06T01:23:51;6.60;;;4.00;;
12869;SDS011;6503;48.572;13.460;2023-04-06T01:26:21;6.25;;;4.00;;
12869;SDS011;6503;48.572;13.460;2023-04-06T01:28:52;7.00;;;4.05;;
12869;SDS011;6503;48.572;13.460;2023-04-06T01:31:26;5.80;;;3.80;;
12869;SDS011;6503;48.572;13.460;2023-04-06T01:33:57;7.28;;;4.35;;
12869;SDS011;6503;48.572;13.460;2023-04-06T01:36:29;7.95;;;3.80;;
12869;SDS011;6503;48.572;13.460;2023-04-06T01:39:05;8.30;;;3.70;;
12869;SDS011;6503;48.572;13.460;2023-04-06T01:41:40;7.60;;;4.50;;
12869;SDS011;6503;48.572;13.460;2023-04-06T01:44:27;8.77;;;4.38;;
12869;SDS011;6503;48.572;13.460;2023-04-06T01:47:12;7.93;;;4.07;;
12869;SDS011;6503;48.572;13.460;2023-04-06T01:49:40;7.57;;;4.47;;
12869;SDS011;6503;48.572;13.460;2023-04-06T01:52:14;8.30;;;4.60;;
12869;SDS011;6503;48.572;13.460;2023-04-06T01:54:51;6.47;;;4.43;;
12869;SDS011;6503;48.572;13.460;2023-04-06T01:57:30;7.38;;;4.43;;
12869;SDS011;6503;48.572;13.460;2023-04-06T02:00:01;6.88;;;4.50;;
12869;SDS011;6503;48.572;13.460;2023-04-06T02:02:34;7.65;;;4.25;;
12869;SDS011;6503;48.572;13.460;2023-04-06T02:05:02;7.00;;;3.92;;
12869;SDS011;6503;48.572;13.460;2023-04-06T02:07:35;7.65;;;4.35;;
12869;SDS011;6503;48.572;13.460;2023-04-06T02:10:10;6.07;;;3.55;;
12869;SDS011;6503;48.572;13.460;2023-04-06T02:12:47;7.88;;;4.40;;
12869;SDS011;6503;48.572;13.460;2023-04-06T02:15:17;7.63;;;3.55;;
12869;SDS011;6503;48.572;13.460;2023-04-06T02:17:45;6.97;;;3.40;;
12869;SDS011;6503;48.572;13.460;2023-04-06T02:20:20;9.55;;;3.58;;
12869;SDS011;6503;48.572;13.460;2023-04-06T02:22:49;6.43;;;3.70;;
12869;SDS011;6503;48.572;13.460;2023-04-06T02:25:21;5.57;;;3.42;;
12869;SDS011;6503;48.572;13.460;2023-04-06T02:27:49;4.78;;;3.53;;
12869;SDS011;6503;48.572;13.460;2023-04-06T02:30:17;6.45;;;3.30;;
12869;SDS011;6503;48.572;13.460;2023-04-06T02:32:48;6.03;;;3.72;;
12869;SDS011;6503;48.572;13.460;2023-04-06T02:35:16;6.15;;;3.95;;
12869;SDS011;6503;48.572;13.460;2023-04-06T02:37:44;8.90;;;4.03;;
12869;SDS011;6503;48.572;13.460;2023-04-06T02:40:13;7.22;;;3.63;;
12869;SDS011;6503;48.572;13.460;2023-04-06T02:42:42;10.25;;;4.93;;
12869;SDS011;6503;48.572;13.460;2023-04-06T02:45:10;12.27;;;5.15;;
12869;SDS011;6503;48.572;13.460;2023-04-06T02:47:40;26.40;;;10.05;;
12869;SDS011;6503;48.572;13.460;2023-04-06T02:50:08;22.85;;;9.15;;
12869;SDS011;6503;48.572;13.460;2023-04-06T02:55:06;21.77;;;7.78;;
12869;SDS011;6503;48.572;13.460;2023-04-06T02:57:34;22.77;;;8.43;;
12869;SDS011;6503;48.572;13.460;2023-04-06T03:00:07;29.10;;;10.30;;
12869;SDS011;6503;48.572;13.460;2023-04-06T03:02:35;32.35;;;11.60;;
12869;SDS011;6503;48.572;13.460;2023-04-06T03:05:16;28.13;;;10.93;;
12869;SDS011;6503;48.572;13.460;2023-04-06T03:07:49;27.67;;;10.07;;
12869;SDS011;6503;48.572;13.460;2023-04-06T03:10:17;25.15;;;9.80;;
12869;SDS011;6503;48.572;13.460;2023-04-06T03:12:49;21.98;;;8.70;;
12869;SDS011;6503;48.572;13.460;2023-04-06T03:15:25;20.90;;;8.95;;
12869;SDS011;6503;48.572;13.460;2023-04-06T03:18:00;13.27;;;6.60;;
12869;SDS011;6503;48.572;13.460;2023-04-06T03:20:28;18.73;;;8.20;;
12869;SDS011;6503;48.572;13.460;2023-04-06T03:22:57;13.20;;;6.18;;
12869;SDS011;6503;48.572;13.460;2023-04-06T03:25:24;13.68;;;6.32;;
12869;SDS011;6503;48.572;13.460;2023-04-06T03:27:59;11.35;;;5.70;;
12869;SDS011;6503;48.572;13.460;2023-04-06T03:30:31;13.75;;;6.47;;
12869;SDS011;6503;48.572;13.460;2023-04-06T03:33:00;16.55;;;6.97;;
12869;SDS011;6503;48.572;13.460;2023-04-06T03:35:28;15.65;;;6.88;;
12869;SDS011;6503;48.572;13.460;2023-04-06T03:37:57;12.00;;;5.70;;
12869;SDS011;6503;48.572;13.460;2023-04-06T03:40:25;11.52;;;6.15;;
12869;SDS011;6503;48.572;13.460;2023-04-06T03:42:52;10.55;;;5.68;;
12869;SDS011;6503;48.572;13.460;2023-04-06T03:45:25;10.60;;;6.60;;
12869;SDS011;6503;48.572;13.460;2023-04-06T03:48:00;10.32;;;6.00;;
12869;SDS011;6503;48.572;13.460;2023-04-06T03:50:28;12.50;;;6.07;;
12869;SDS011;6503;48.572;13.460;2023-04-06T03:52:59;13.10;;;6.13;;
12869;SDS011;6503;48.572;13.460;2023-04-06T03:55:29;13.63;;;5.78;;
12869;SDS011;6503;48.572;13.460;2023-04-06T03:58:05;9.18;;;5.93;;
12869;SDS011;6503;48.572;13.460;2023-04-06T04:00:46;11.70;;;6.32;;
12869;SDS011;6503;48.572;13.460;2023-04-06T04:03:29;9.90;;;5.63;;
12869;SDS011;6503;48.572;13.460;2023-04-06T04:05:59;10.32;;;5.90;;
12869;SDS011;6503;48.572;13.460;2023-04-06T04:08:37;13.20;;;5.97;;
12869;SDS011;6503;48.572;13.460;2023-04-06T04:14:03;10.27;;;5.80;;
12869;SDS011;6503;48.572;13.460;2023-04-06T04:16:31;10.32;;;6.25;;
12869;SDS011;6503;48.572;13.460;2023-04-06T04:19:04;10.00;;;5.88;;
12869;SDS011;6503;48.572;13.460;2023-04-06T04:21:33;13.63;;;5.18;;
12869;SDS011;6503;48.572;13.460;2023-04-06T04:24:06;10.35;;;5.05;;
12869;SDS011;6503;48.572;13.460;2023-04-06T04:26:46;6.70;;;5.47;;
12869;SDS011;6503;48.572;13.460;2023-04-06T04:29:15;11.00;;;5.88;;
12869;SDS011;6503;48.572;13.460;2023-04-06T04:31:52;9.90;;;5.40;;
12869;SDS011;6503;48.572;13.460;2023-04-06T04:34:29;11.07;;;5.72;;
12869;SDS011;6503;48.572;13.460;2023-04-06T04:36:58;10.45;;;5.20;;
12869;SDS011;6503;48.572;13.460;2023-04-06T04:39:28;9.55;;;5.63;;
12869;SDS011;6503;48.572;13.460;2023-04-06T04:41:56;11.30;;;5.40;;
12869;SDS011;6503;48.572;13.460;2023-04-06T04:44:32;10.15;;;5.85;;
12869;SDS011;6503;48.572;13.460;2023-04-06T04:47:03;8.57;;;5.72;;
12869;SDS011;6503;48.572;13.460;2023-04-06T04:49:34;7.82;;;5.18;;
12869;SDS011;6503;48.572;13.460;2023-04-06T04:52:02;12.10;;;6.68;;
12869;SDS011;6503;48.572;13.460;2023-04-06T04:54:40;8.45;;;5.53;;
12869;SDS011;6503;48.572;13.460;2023-04-06T04:57:09;9.55;;;6.10;;
12869;SDS011;6503;48.572;13.460;2023-04-06T04:59:42;11.90;;;7.10;;
12869;SDS011;6503;48.572;13.460;2023-04-06T05:02:11;11.52;;;6.60;;
12869;SDS011;6503;48.572;13.460;2023-04-06T05:04:49;15.77;;;7.20;;
12869;SDS011;6503;48.572;13.460;2023-04-06T05:07:27;10.00;;;6.00;;
12869;SDS011;6503;48.572;13.460;2023-04-06T05:10:01;10.80;;;6.43;;
12869;SDS011;6503;48.572;13.460;2023-04-06T05:12:44;10.50;;;6.25;;
12869;SDS011;6503;48.572;13.460;2023-04-06T05:15:20;10.93;;;6.22;;
12869;SDS011;6503;48.572;13.460;2023-04-06T05:17:49;9.52;;;6.57;;
12869;SDS011;6503;48.572;13.460;2023-04-06T05:20:19;14.10;;;6.85;;
12869;SDS011;6503;48.572;13.460;2023-04-06T05:22:47;10.70;;;6.20;;
12869;SDS011;6503;48.572;13.460;2023-04-06T05:25:15;15.95;;;6.57;;
12869;SDS011;6503;48.572;13.460;2023-04-06T05:27:48;12.90;;;7.95;;
12869;SDS011;6503;48.572;13.460;2023-04-06T05:30:19;10.23;;;6.18;;
12869;SDS011;6503;48.572;13.460;2023-04-06T05:32:52;7.90;;;6.00;;
12869;SDS011;6503;48.572;13.460;2023-04-06T05:38:09;6.78;;;4.93;;
12869;SDS011;6503;48.572;13.460;2023-04-06T05:46:53;9.45;;;6.03;;
12869;SDS011;6503;48.572;13.460;2023-04-06T05:49:57;10.77;;;6.15;;
12869;SDS011;6503;48.572;13.460;2023-04-06T05:52:35;10.93;;;5.95;;
12869;SDS011;6503;48.572;13.460;2023-04-06T05:58:36;7.30;;;5.90;;
12869;SDS011;6503;48.572;13.460;2023-04-06T06:01:18;11.95;;;5.82;;
12869;SDS011;6503;48.572;13.460;2023-04-06T06:06:29;11.40;;;5.90;;
12869;SDS011;6503;48.572;13.460;2023-04-06T06:09:21;8.57;;;5.70;;
12869;SDS011;6503;48.572;13.460;2023-04-06T06:12:19;9.05;;;5.68;;
12869;SDS011;6503;48.572;13.460;2023-04-06T06:15:16;10.68;;;5.85;;
12869;SDS011;6503;48.572;13.460;2023-04-06T06:17:53;10.10;;;5.93;;
12869;SDS011;6503;48.572;13.460;2023-04-06T06:20:34;10.50;;;6.32;;
12869;SDS011;6503;48.572;13.460;2023-04-06T06:23:31;7.13;;;6.18;;
12869;SDS011;6503;48.572;13.460;2023-04-06T06:26:48;8.98;;;5.72;;
12869;SDS011;6503;48.572;13.460;2023-04-06T06:29:30;8.35;;;5.60;;
12869;SDS011;6503;48.572;13.460;2023-04-06T06:44:17;8.02;;;5.72;;
12869;SDS011;6503;48.572;13.460;2023-04-06T06:50:04;14.30;;;10.45;;
12869;SDS011;6503;48.572;13.460;2023-04-06T08:06:51;6.50;;;4.18;;
12869;SDS011;6503;48.572;13.460;2023-04-06T08:09:38;7.15;;;4.45;;
12869;SDS011;6503;48.572;13.460;2023-04-06T08:12:22;9.90;;;5.22;;
12869;SDS011;6503;48.572;13.460;2023-04-06T08:16:42;6.07;;;4.30;;
12869;SDS011;6503;48.572;13.460;2023-04-06T08:18:10;6.82;;;4.18;;
12869;SDS011;6503;48.572;13.460;2023-04-06T08:21:03;9.35;;;4.35;;
12869;SDS011;6503;48.572;13.460;2023-04-06T08:24:09;6.38;;;4.10;;
12869;SDS011;6503;48.572;13.460;2023-04-06T08:26:52;7.18;;;4.15;;
12869;SDS011;6503;48.572;13.460;2023-04-06T08:32:58;8.45;;;4.47;;
12869;SDS011;6503;48.572;13.460;2023-04-06T08:42:25;6.85;;;4.25;;
12869;SDS011;6503;48.572;13.460;2023-04-06T08:56:40;5.18;;;4.10;;
12869;SDS011;6503;48.572;13.460;2023-04-06T09:05:38;6.40;;;4.47;;
12869;SDS011;6503;48.572;13.460;2023-04-06T09:11:44;5.75;;;4.15;;
12869;SDS011;6503;48.572;13.460;2023-04-06T09:14:35;6.20;;;3.95;;
12869;SDS011;6503;48.572;13.460;2023-04-06T09:17:22;6.72;;;4.18;;
12869;SDS011;6503;48.572;13.460;2023-04-06T09:20:02;9.05;;;4.20;;
12869;SDS011;6503;48.572;13.460;2023-04-06T09:23:02;5.63;;;4.50;;
12869;SDS011;6503;48.572;13.460;2023-04-06T09:25:41;8.98;;;4.28;;
12869;SDS011;6503;48.572;13.460;2023-04-06T09:34:44;5.90;;;4.15;;
12869;SDS011;6503;48.572;13.460;2023-04-06T09:37:27;8.43;;;4.30;;
12869;SDS011;6503;48.572;13.460;2023-04-06T09:46:13;6.90;;;4.40;;
12869;SDS011;6503;48.572;13.460;2023-04-06T09:49:14;6.53;;;4.20;;
12869;SDS011;6503;48.572;13.460;2023-04-06T09:54:58;5.50;;;4.60;;
12869;SDS011;6503;48.572;13.460;2023-04-06T09:58:16;6.15;;;4.10;;
12869;SDS011;6503;48.572;13.460;2023-04-06T10:10:12;6.53;;;4.28;;
12869;SDS011;6503;48.572;13.460;2023-04-06T10:15:52;5.47;;;3.90;;
12869;SDS011;6503;48.572;13.460;2023-04-06T10:18:34;6.55;;;4.13;;
12869;SDS011;6503;48.572;13.460;2023-04-06T10:21:20;5.43;;;4.43;;
12869;SDS011;6503;48.572;13.460;2023-04-06T10:24:06;7.38;;;4.68;;
12869;SDS011;6503;48.572;13.460;2023-04-06T10:27:05;6.15;;;4.07;;
12869;SDS011;6503;48.572;13.460;2023-04-06T10:29:49;6.30;;;4.07;;
12869;SDS011;6503;48.572;13.460;2023-04-06T10:32:31;6.55;;;4.40;;
12869;SDS011;6503;48.572;13.460;2023-04-06T10:35:10;4.72;;;4.10;;
12869;SDS011;6503;48.572;13.460;2023-04-06T10:40:18;6.28;;;4.30;;
12869;SDS011;6503;48.572;13.460;2023-04-06T10:43:21;7.47;;;4.68;;
12869;SDS011;6503;48.572;13.460;2023-04-06T10:51:59;6.22;;;4.88;;
12869;SDS011;6503;48.572;13.460;2023-04-06T10:54:38;6.32;;;4.93;;
12869;SDS011;6503;48.572;13.460;2023-04-06T10:57:28;6.18;;;5.05;;
12869;SDS011;6503;48.572;13.460;2023-04-06T11:03:20;8.13;;;5.22;;
12869;SDS011;6503;48.572;13.460;2023-04-06T11:08:54;6.85;;;4.97;;
12869;SDS011;6503;48.572;13.460;2023-04-06T11:11:40;5.57;;;4.38;;
12869;SDS011;6503;48.572;13.460;2023-04-06T11:14:30;6.57;;;4.75;;
12869;SDS011;6503;48.572;13.460;2023-04-06T11:17:34;7.00;;;5.07;;
12869;SDS011;6503;48.572;13.460;2023-04-06T11:23:12;8.45;;;4.72;;
12869;SDS011;6503;48.572;13.460;2023-04-06T11:26:14;6.53;;;4.22;;
12869;SDS011;6503;48.572;13.460;2023-04-06T11:28:53;7.75;;;4.28;;
12869;SDS011;6503;48.572;13.460;2023-04-06T11:31:40;6.15;;;4.45;;
12869;SDS011;6503;48.572;13.460;2023-04-06T11:34:32;5.22;;;4.18;;
12869;SDS011;6503;48.572;13.460;2023-04-06T11:37:11;6.68;;;4.57;;
12869;SDS011;6503;48.572;13.460;2023-04-06T11:42:54;5.10;;;4.38;;
12869;SDS011;6503;48.572;13.460;2023-04-06T11:45:24;8.52;;;4.43;;
12869;SDS011;6503;48.572;13.460;2023-04-06T11:48:05;6.40;;;4.30;;
12869;SDS011;6503;48.572;13.460;2023-04-06T11:50:46;5.82;;;4.05;;
12869;SDS011;6503;48.572;13.460;2023-04-06T11:53:32;7.35;;;4.97;;
12869;SDS011;6503;48.572;13.460;2023-04-06T11:56:25;5.72;;;3.65;;
12869;SDS011;6503;48.572;13.460;2023-04-06T11:59:10;6.18;;;3.83;;
12869;SDS011;6503;48.572;13.460;2023-04-06T12:01:56;7.28;;;4.72;;
12869;SDS011;6503;48.572;13.460;2023-04-06T12:04:38;6.82;;;4.38;;
12869;SDS011;6503;48.572;13.460;2023-04-06T12:07:25;5.13;;;3.75;;
12869;SDS011;6503;48.572;13.460;2023-04-06T12:10:09;5.25;;;3.75;;
12869;SDS011;6503;48.572;13.460;2023-04-06T12:12:51;5.05;;;3.72;;
12869;SDS011;6503;48.572;13.460;2023-04-06T12:15:35;7.15;;;3.72;;
12869;SDS011;6503;48.572;13.460;2023-04-06T12:18:13;6.03;;;3.63;;
12869;SDS011;6503;48.572;13.460;2023-04-06T12:20:47;6.70;;;3.85;;
12869;SDS011;6503;48.572;13.460;2023-04-06T12:23:33;5.18;;;3.90;;
12869;SDS011;6503;48.572;13.460;2023-04-06T12:26:01;6.38;;;4.32;;
12869;SDS011;6503;48.572;13.460;2023-04-06T12:28:35;5.97;;;4.13;;
12869;SDS011;6503;48.572;13.460;2023-04-06T12:34:05;4.55;;;3.80;;
12869;SDS011;6503;48.572;13.460;2023-04-06T12:36:52;5.13;;;3.30;;
12869;SDS011;6503;48.572;13.460;2023-04-06T12:39:25;4.65;;;3.35;;
12869;SDS011;6503;48.572;13.460;2023-04-06T12:41:54;4.50;;;3.38;;
12869;SDS011;6503;48.572;13.460;2023-04-06T12:44:27;6.85;;;3.83;;
12869;SDS011;6503;48.572;13.460;2023-04-06T12:47:03;4.13;;;3.35;;
12869;SDS011;6503;48.572;13.460;2023-04-06T12:49:47;3.83;;;3.50;;
12869;SDS011;6503;48.572;13.460;2023-04-06T12:55:11;4.90;;;4.00;;
12869;SDS011;6503;48.572;13.460;2023-04-06T12:57:40;6.15;;;3.60;;
12869;SDS011;6503;48.572;13.460;2023-04-06T13:00:15;4.85;;;3.80;;
12869;SDS011;6503;48.572;13.460;2023-04-06T13:02:46;5.22;;;3.60;;
12869;SDS011;6503;48.572;13.460;2023-04-06T13:05:28;4.55;;;4.10;;
12869;SDS011;6503;48.572;13.460;2023-04-06T13:08:14;4.68;;;3.38;;
12869;SDS011;6503;48.572;13.460;2023-04-06T13:10:46;6.28;;;3.38;;
12869;SDS011;6503;48.572;13.460;2023-04-06T13:13:28;4.28;;;3.88;;
12869;SDS011;6503;48.572;13.460;2023-04-06T13:16:09;6.13;;;3.72;;
12869;SDS011;6503;48.572;13.460;2023-04-06T13:18:38;5.67;;;3.40;;
12869;SDS011;6503;48.572;13.460;2023-04-06T13:21:14;4.88;;;3.67;;
12869;SDS011;6503;48.572;13.460;2023-04-06T13:23:48;4.60;;;3.88;;
12869;SDS011;6503;48.572;13.460;2023-04-06T13:26:27;4.68;;;4.05;;
12869;SDS011;6503;48.572;13.460;2023-04-06T13:29:04;4.90;;;3.95;;
12869;SDS011;6503;48.572;13.460;2023-04-06T13:34:30;5.40;;;3.53;;
12869;SDS011;6503;48.572;13.460;2023-04-06T13:40:14;6.03;;;4.00;;
12869;SDS011;6503;48.572;13.460;2023-04-06T13:42:59;5.72;;;3.97;;
12869;SDS011;6503;48.572;13.460;2023-04-06T13:45:54;5.75;;;3.58;;
12869;SDS011;6503;48.572;13.460;2023-04-06T13:51:16;4.55;;;3.58;;
12869;SDS011;6503;48.572;13.460;2023-04-06T13:53:47;4.75;;;3.58;;
12869;SDS011;6503;48.572;13.460;2023-04-06T14:04:31;5.28;;;3.97;;
12869;SDS011;6503;48.572;13.460;2023-04-06T14:07:06;4.68;;;3.67;;
12869;SDS011;6503;48.572;13.460;2023-04-06T14:09:40;4.95;;;4.18;;
12869;SDS011;6503;48.572;13.460;2023-04-06T14:12:21;5.03;;;3.45;;
12869;SDS011;6503;48.572;13.460;2023-04-06T14:14:52;4.75;;;3.45;;
12869;SDS011;6503;48.572;13.460;2023-04-06T14:17:33;5.35;;;4.53;;
12869;SDS011;6503;48.572;13.460;2023-04-06T14:20:19;5.30;;;3.92;;
12869;SDS011;6503;48.572;13.460;2023-04-06T14:22:59;5.53;;;4.03;;
12869;SDS011;6503;48.572;13.460;2023-04-06T14:25:28;6.97;;;3.92;;
12869;SDS011;6503;48.572;13.460;2023-04-06T14:28:11;4.72;;;3.80;;
12869;SDS011;6503;48.572;13.460;2023-04-06T14:30:40;7.43;;;3.90;;
12869;SDS011;6503;48.572;13.460;2023-04-06T14:39:17;3.90;;;3.43;;
12869;SDS011;6503;48.572;13.460;2023-04-06T14:47:10;4.95;;;4.00;;
12869;SDS011;6503;48.572;13.460;2023-04-06T14:49:40;4.80;;;4.30;;
12869;SDS011;6503;48.572;13.460;2023-04-06T15:00:55;6.45;;;4.22;;
12869;SDS011;6503;48.572;13.460;2023-04-06T15:03:25;4.70;;;3.88;;
12869;SDS011;6503;48.572;13.460;2023-04-06T15:06:05;5.10;;;3.65;;
12869;SDS011;6503;48.572;13.460;2023-04-06T15:08:34;4.65;;;3.90;;
12869;SDS011;6503;48.572;13.460;2023-04-06T15:11:26;5.47;;;3.83;;
12869;SDS011;6503;48.572;13.460;2023-04-06T15:13:54;5.07;;;4.00;;
12869;SDS011;6503;48.572;13.460;2023-04-06T15:16:44;6.60;;;4.07;;
12869;SDS011;6503;48.572;13.460;2023-04-06T15:22:40;6.25;;;4.25;;
12869;SDS011;6503;48.572;13.460;2023-04-06T15:49:24;6.78;;;3.97;;
12869;SDS011;6503;48.572;13.460;2023-04-06T16:05:40;4.88;;;2.63;;
12869;SDS011;6503;48.572;13.460;2023-04-06T16:13:56;6.43;;;3.40;;
12869;SDS011;6503;48.572;13.460;2023-04-06T16:16:32;3.90;;;3.00;;
12869;SDS011;6503;48.572;13.460;2023-04-06T16:19:15;6.13;;;3.60;;
12869;SDS011;6503;48.572;13.460;2023-04-06T16:22:28;5.95;;;4.03;;
12869;SDS011;6503;48.572;13.460;2023-04-06T16:25:11;7.85;;;3.80;;
12869;SDS011;6503;48.572;13.460;2023-04-06T16:27:56;4.57;;;3.25;;
12869;SDS011;6503;48.572;13.460;2023-04-06T16:33:38;6.88;;;4.70;;
12869;SDS011;6503;48.572;13.460;2023-04-06T16:36:21;6.28;;;4.90;;
12869;SDS011;6503;48.572;13.460;2023-04-06T16:39:08;7.30;;;5.10;;
12869;SDS011;6503;48.572;13.460;2023-04-06T16:45:00;7.65;;;5.40;;
12869;SDS011;6503;48.572;13.460;2023-04-06T16:47:47;6.35;;;5.07;;
12869;SDS011;6503;48.572;13.460;2023-04-06T16:50:42;6.32;;;4.82;;
12869;SDS011;6503;48.572;13.460;2023-04-06T16:56:22;7.78;;;5.78;;
12869;SDS011;6503;48.572;13.460;2023-04-06T16:56:54;7.30;;;5.32;;
12869;SDS011;6503;48.572;13.460;2023-04-06T16:59:23;9.38;;;5.07;;
12869;SDS011;6503;48.572;13.460;2023-04-06T17:05:00;9.60;;;5.57;;
12869;SDS011;6503;48.572;13.460;2023-04-06T17:10:54;7.75;;;5.68;;
12869;SDS011;6503;48.572;13.460;2023-04-06T17:13:36;11.55;;;6.40;;
12869;SDS011;6503;48.572;13.460;2023-04-06T17:16:36;7.65;;;5.40;;
12869;SDS011;6503;48.572;13.460;2023-04-06T17:19:20;9.90;;;6.18;;
12869;SDS011;6503;48.572;13.460;2023-04-06T17:22:16;7.90;;;5.82;;
12869;SDS011;6503;48.572;13.460;2023-04-06T17:25:07;7.80;;;5.50;;
12869;SDS011;6503;48.572;13.460;2023-04-06T17:28:07;10.07;;;5.45;;
12869;SDS011;6503;48.572;13.460;2023-04-06T17:31:30;8.43;;;5.50;;
12869;SDS011;6503;48.572;13.460;2023-04-06T17:34:05;8.68;;;6.20;;
12869;SDS011;6503;48.572;13.460;2023-04-06T17:36:56;9.07;;;6.18;;
12869;SDS011;6503;48.572;13.460;2023-04-06T17:39:37;10.00;;;6.70;;
12869;SDS011;6503;48.572;13.460;2023-04-06T17:42:21;9.50;;;6.28;;
12869;SDS011;6503;48.572;13.460;2023-04-06T17:47:47;8.52;;;5.82;;
12869;SDS011;6503;48.572;13.460;2023-04-06T17:53:06;9.48;;;6.70;;
12869;SDS011;6503;48.572;13.460;2023-04-06T17:55:37;12.52;;;6.60;;
12869;SDS011;6503;48.572;13.460;2023-04-06T17:58:13;9.45;;;6.20;;
12869;SDS011;6503;48.572;13.460;2023-04-06T18:00:54;10.10;;;6.35;;
12869;SDS011;6503;48.572;13.460;2023-04-06T18:03:47;12.93;;;6.25;;
12869;SDS011;6503;48.572;13.460;2023-04-06T18:06:26;8.35;;;6.05;;
12869;SDS011;6503;48.572;13.460;2023-04-06T18:12:09;11.98;;;5.18;;
12869;SDS011;6503;48.572;13.460;2023-04-06T18:16:31;12.15;;;6.65;;
12869;SDS011;6503;48.572;13.460;2023-04-06T18:18:31;10.93;;;4.57;;
12869;SDS011;6503;48.572;13.460;2023-04-06T18:33:05;9.45;;;4.82;;
12869;SDS011;6503;48.572;13.460;2023-04-06T18:37:13;9.20;;;4.95;;
12869;SDS011;6503;48.572;13.460;2023-04-06T18:38:43;7.38;;;4.80;;
12869;SDS011;6503;48.572;13.460;2023-04-06T18:41:27;7.45;;;4.53;;
12869;SDS011;6503;48.572;13.460;2023-04-06T18:44:11;6.78;;;4.68;;
12869;SDS011;6503;48.572;13.460;2023-04-06T18:46:54;8.70;;;4.43;;
